Beechmont, Kentucky
Current Conditions -  °F | °C
As of 9:55 AM on Sunday 21 Dec 2014 (Local Time) from K2I0 Reporting Station
Haze Haze  
Wind Chill: 35°   Ceiling: Unl
Heat Index: 35°   Visibility: 4mi
Dew Point: 32°   Wind: 3mph
Humidity: 86%   Direction: 100°E
Pressure: 30.27"   Gusts: NA
Location:  37.17°N, 87.04°W
Report Text: K2I0 211555Z AUTO 10003KT 4SM BR CLR 02/00 A3027 RMK AO2 T00191002
Loading
Personal Weather Stations






























Interactive Weather Map New forecast layout! Learn more

10-Day Weather Forecast

Advertisements
Track Severe Weather on mobile